< Typhoon 197827 1978 Season Typhoon 197829 >
Typhoon 197828 (TESS)
General InformationTrack Information on Google MapsDetailed Wind Information || Disaster Info.ResourceGoogle EarthGE AnimationAtom FeedGeoJSON
Detalied Best Track (Time Zone = UTC)
Year Month Day Hour Lat. Long. Pressure (hPa) Wind (kt) Class Image Chart
1978 10 31 06 13.5 147.0 1002 0 2 -- Chart
1978 10 31 12 13.6 146.5 1002 0 2 -- Chart
1978 10 31 18 14.1 145.5 1000 0 2 -- Chart
1978 11 1 00 14.3 145.3 1000 0 2 -- Chart
1978 11 1 06 14.6 145.1 998 0 2 -- Chart
1978 11 1 12 14.9 144.8 998 0 2 -- Chart
1978 11 1 18 15.1 144.7 996 0 2 -- Chart
1978 11 2 00 15.5 144.2 992 35 3 -- Chart
1978 11 2 06 16.5 144.0 990 35 3 -- Chart
1978 11 2 12 17.8 144.6 990 35 3 -- Chart
1978 11 2 18 18.4 145.0 990 35 3 -- Chart
1978 11 3 00 18.8 145.3 980 45 3 -- Chart
1978 11 3 06 19.3 145.7 980 45 3 -- Chart
1978 11 3 12 19.8 145.9 980 45 3 -- Chart
1978 11 3 18 20.4 146.2 975 50 4 -- Chart
1978 11 4 00 21.1 146.5 975 55 4 -- Chart
1978 11 4 06 22.0 146.9 975 55 4 -- Chart
1978 11 4 12 23.2 147.2 975 55 4 -- Chart
1978 11 4 18 24.2 147.7 975 60 4 -- Chart
1978 11 5 00 25.3 148.0 975 60 4 -- Chart
1978 11 5 06 26.8 149.0 975 60 4 -- Chart
1978 11 5 12 27.8 149.8 975 60 4 -- Chart
1978 11 5 18 29.0 151.0 975 60 4 -- Chart
1978 11 6 00 30.7 152.5 975 55 4 -- Chart
1978 11 6 06 32.3 154.5 975 55 4 -- Chart
1978 11 6 12 33.6 157.3 980 50 4 -- Chart
1978 11 6 18 35.0 161.0 985 45 3 -- Chart
1978 11 7 00 36.9 164.7 980 0 6 -- Chart
1978 11 7 06 39.0 168.0 980 0 6 -- Chart
1978 11 7 12 41.5 171.6 980 0 6 -- Chart
1978 11 7 18 44.0 175.0 976 0 6 -- Chart
1978 11 8 00 47.0 179.0 972 0 6 -- Chart
1978 11 8 06 50.0 180.0 964 0 6 -- Chart
Japan Meteorological Agency Best Track Data | Correction Date : 1992-10-21
< Typhoon 197827 1978 Season Typhoon 197829 >

Help